createdAt,value
2018-12-12T00:00:24.466Z,97168.69
2018-12-12T00:02:57.187Z,97169.80
2018-12-12T00:05:29.937Z,97161.12
2018-12-12T00:08:02.629Z,97167.39
2018-12-12T00:10:33.377Z,97172.25
2018-12-12T00:13:03.919Z,97175.39
2018-12-12T00:15:35.604Z,97168.99
2018-12-12T00:18:09.138Z,97169.09
2018-12-12T00:20:39.871Z,97168.16
2018-12-12T00:23:10.497Z,97173.57
2018-12-12T00:25:41.211Z,97167.95
2018-12-12T00:28:11.790Z,97170.59
2018-12-12T00:30:42.761Z,97170.38
2018-12-12T00:33:13.455Z,97169.98
2018-12-12T00:35:44.099Z,97178.74
2018-12-12T00:38:14.732Z,97161.36
2018-12-12T00:40:45.506Z,97164.24
2018-12-12T00:43:16.172Z,97156.80
2018-12-12T00:45:47.492Z,97149.13
2018-12-12T00:48:19.169Z,97154.04
2018-12-12T00:50:52.766Z,97155.25
2018-12-12T00:53:23.620Z,97147.58
2018-12-12T00:55:54.350Z,97142.10
2018-12-12T00:58:25.085Z,97150.33
2018-12-12T01:00:55.706Z,97146.45
2018-12-12T01:03:26.339Z,97141.80
2018-12-12T01:05:56.951Z,97141.25
2018-12-12T01:08:27.680Z,97136.03
2018-12-12T01:11:03.360Z,97138.30
2018-12-12T01:13:33.937Z,97129.95
2018-12-12T01:16:04.610Z,97128.68
2018-12-12T01:18:35.264Z,97134.64
2018-12-12T01:21:06.000Z,97128.03
2018-12-12T01:23:36.645Z,97124.09
2018-12-12T01:26:07.296Z,97131.72
2018-12-12T01:28:37.943Z,97129.80
2018-12-12T01:31:08.856Z,97123.70
2018-12-12T01:33:39.424Z,97128.09
2018-12-12T01:36:10.094Z,97121.70
2018-12-12T01:38:40.733Z,97122.16
2018-12-12T01:41:11.466Z,97119.63
2018-12-12T01:43:42.113Z,97125.86
2018-12-12T01:46:12.773Z,97124.24
2018-12-12T01:48:43.457Z,97131.62
2018-12-12T01:51:14.399Z,97131.69
2018-12-12T01:53:47.127Z,97135.01
2018-12-12T01:56:17.757Z,97130.78
2018-12-12T01:58:48.413Z,97127.97
2018-12-12T02:01:19.091Z,97128.68
2018-12-12T02:03:49.711Z,97132.11
2018-12-12T02:06:20.367Z,97131.74
2018-12-12T02:08:52.105Z,97123.22
2018-12-12T02:11:22.994Z,97130.11
2018-12-12T02:13:53.598Z,97136.77
2018-12-12T02:16:25.449Z,97125.77
2018-12-12T02:18:56.329Z,97126.97
2018-12-12T02:21:26.999Z,97123.16
2018-12-12T02:23:57.681Z,97122.34
2018-12-12T02:26:28.393Z,97112.94
2018-12-12T02:28:59.042Z,97111.95
2018-12-12T02:31:29.912Z,97109.30
2018-12-12T02:34:00.517Z,97112.09
2018-12-12T02:36:31.152Z,97115.41
2018-12-12T02:39:01.804Z,97106.84
2018-12-12T02:41:33.766Z,97104.41
2018-12-12T02:44:04.490Z,97105.02
2018-12-12T02:46:36.393Z,97105.70
2018-12-12T02:49:06.989Z,97112.06
2018-12-12T02:51:37.811Z,97110.06
2018-12-12T02:54:08.392Z,97112.06
2018-12-12T02:56:39.048Z,97111.26
2018-12-12T02:59:09.734Z,97119.25
2018-12-12T03:01:40.355Z,97119.12
2018-12-12T03:04:11.097Z,97116.70
2018-12-12T03:06:41.685Z,97119.12
2018-12-12T03:09:12.336Z,97123.16
2018-12-12T03:11:43.200Z,97125.60
2018-12-12T03:14:13.817Z,97129.70
2018-12-12T03:16:44.446Z,97138.66
2018-12-12T03:19:15.046Z,97136.22
2018-12-12T03:21:45.692Z,97137.86
2018-12-12T03:24:16.367Z,97143.51
2018-12-12T03:26:46.846Z,97142.77
2018-12-12T03:29:17.506Z,97139.06
2018-12-12T03:31:48.376Z,97145.07
2018-12-12T03:34:19.040Z,97151.40
2018-12-12T03:36:49.760Z,97150.29
2018-12-12T03:39:20.428Z,97147.12
2018-12-12T03:41:51.107Z,97151.37
2018-12-12T03:44:21.713Z,97153.83
2018-12-12T03:46:52.401Z,97156.38
2018-12-12T03:49:23.007Z,97159.33
2018-12-12T03:51:54.799Z,97159.89
2018-12-12T03:54:25.456Z,97171.95
2018-12-12T03:56:56.178Z,97172.42
2018-12-12T03:59:26.815Z,97185.80
2018-12-12T04:01:57.425Z,97185.17
2018-12-12T04:04:28.020Z,97184.59
2018-12-12T04:06:58.801Z,97186.33
2018-12-12T04:09:29.465Z,97186.91
2018-12-12T04:12:00.199Z,97192.01
2018-12-12T04:14:31.559Z,97195.05
2018-12-12T04:17:02.230Z,97198.09
2018-12-12T04:19:32.863Z,97203.12
2018-12-12T04:22:05.648Z,97197.34
2018-12-12T04:24:36.423Z,97206.72
2018-12-12T04:27:07.158Z,97206.09
2018-12-12T04:29:37.861Z,97201.22
2018-12-12T04:32:08.645Z,97204.39
2018-12-12T04:34:39.237Z,97202.25
2018-12-12T04:37:09.852Z,97198.43
2018-12-12T04:39:40.459Z,97199.88
2018-12-12T04:42:11.134Z,97205.41
2018-12-12T04:44:41.748Z,97200.07
2018-12-12T04:47:12.321Z,97201.03
2018-12-12T04:49:42.940Z,97202.30
2018-12-12T04:52:13.829Z,97209.98
2018-12-12T04:54:44.572Z,97206.00
2018-12-12T04:57:15.313Z,97212.24
2018-12-12T04:59:45.976Z,97212.09
2018-12-12T05:02:22.001Z,97209.48
2018-12-12T05:04:53.434Z,97215.28
2018-12-12T05:07:24.512Z,97212.80
2018-12-12T05:09:55.577Z,97218.02
2018-12-12T05:12:26.610Z,97217.95
2018-12-12T05:14:57.220Z,97216.09
2018-12-12T05:17:27.921Z,97218.20
2018-12-12T05:19:58.602Z,97210.87
2018-12-12T05:22:29.218Z,97211.80
2018-12-12T05:24:59.880Z,97210.44
2018-12-12T05:27:30.437Z,97213.85
2018-12-12T05:30:01.090Z,97213.11
2018-12-12T05:32:31.754Z,97210.44
2018-12-12T05:35:03.556Z,97213.98
2018-12-12T05:37:34.254Z,97212.09
2018-12-12T05:40:05.154Z,97221.48
2018-12-12T05:42:36.064Z,97227.61
2018-12-12T05:45:07.120Z,97229.81
2018-12-12T05:47:37.847Z,97232.52
2018-12-12T05:50:08.534Z,97228.44
2018-12-12T05:52:39.478Z,97237.91
2018-12-12T05:55:10.107Z,97235.35
2018-12-12T05:57:40.883Z,97234.21
2018-12-12T06:00:13.305Z,97238.19
2018-12-12T06:02:43.981Z,97236.14
2018-12-12T06:05:14.712Z,97231.45
2018-12-12T06:07:45.388Z,97235.15
2018-12-12T06:10:16.081Z,97238.48
2018-12-12T06:12:47.044Z,97237.72
2018-12-12T06:15:17.693Z,97240.45
2018-12-12T06:17:48.488Z,97245.33
2018-12-12T06:20:21.284Z,97242.84
2018-12-12T06:22:52.065Z,97245.11
2018-12-12T06:25:22.735Z,97251.53
2018-12-12T06:27:53.418Z,97253.94
2018-12-12T06:30:24.217Z,97253.53
2018-12-12T06:33:01.605Z,97265.91
2018-12-12T06:35:34.244Z,97258.17
2018-12-12T06:38:05.201Z,97264.78
2018-12-12T06:40:35.890Z,97263.76
2018-12-12T06:43:06.540Z,97265.33
2018-12-12T06:45:37.180Z,97262.67
2018-12-12T06:48:07.906Z,97263.07
2018-12-12T06:50:38.492Z,97267.61
2018-12-12T06:53:09.215Z,97266.38
2018-12-12T06:55:39.839Z,97264.70
2018-12-12T06:58:11.063Z,97266.35
2018-12-12T07:00:41.912Z,97266.56
2018-12-12T07:03:12.597Z,97271.57
2018-12-12T07:05:43.221Z,97270.45
2018-12-12T07:08:14.309Z,97268.09
2018-12-12T07:10:45.021Z,97272.37
2018-12-12T07:13:17.382Z,97273.92
2018-12-12T07:15:48.187Z,97265.08
2018-12-12T07:18:20.121Z,97268.15
2018-12-12T07:20:50.837Z,97277.47
2018-12-12T07:23:21.699Z,97271.10
2018-12-12T07:25:52.376Z,97265.08
2018-12-12T07:28:23.131Z,97265.10
2018-12-12T07:30:53.857Z,97270.88
2018-12-12T07:33:25.177Z,97275.25
2018-12-12T07:35:59.454Z,97274.09
2018-12-12T07:38:28.830Z,97272.14
2018-12-12T07:41:00.633Z,97282.60
2018-12-12T07:43:33.462Z,97286.98
2018-12-12T07:46:26.113Z,97290.69
2018-12-12T07:48:59.842Z,97299.78
2018-12-12T07:51:35.897Z,97303.33
2018-12-12T07:54:14.208Z,97300.10
2018-12-12T07:56:44.978Z,97306.88
2018-12-12T07:59:15.649Z,97316.10
2018-12-12T08:01:46.272Z,97312.50
2018-12-12T08:04:16.938Z,97317.19
2018-12-12T08:06:47.618Z,97324.18
2018-12-12T08:09:18.296Z,97323.55
2018-12-12T08:11:48.915Z,97326.66
2018-12-12T08:14:19.654Z,97325.27
2018-12-12T08:16:50.409Z,97326.32
2018-12-12T08:19:21.091Z,97333.19
2018-12-12T08:21:52.655Z,97335.98
2018-12-12T08:24:24.026Z,97340.17
2018-12-12T08:26:54.711Z,97330.89
2018-12-12T08:29:25.393Z,97337.48
2018-12-12T08:31:55.994Z,97341.20
2018-12-12T08:34:26.941Z,97340.92
2018-12-12T08:36:57.627Z,97337.51
2018-12-12T08:39:28.307Z,97341.30
2018-12-12T08:41:59.087Z,97342.85
2018-12-12T08:44:29.753Z,97339.16
2018-12-12T08:47:00.372Z,97344.38
2018-12-12T08:49:31.033Z,97337.45
2018-12-12T08:52:01.654Z,97338.41
2018-12-12T08:54:33.570Z,97337.72
2018-12-12T08:57:04.211Z,97333.74
2018-12-12T08:59:35.909Z,97337.34
2018-12-12T09:02:06.597Z,97333.09
2018-12-12T09:04:37.253Z,97327.36
2018-12-12T09:07:07.817Z,97332.36
2018-12-12T09:09:39.999Z,97332.27
2018-12-12T09:12:10.635Z,97332.80
2018-12-12T09:14:41.496Z,97333.13
2018-12-12T09:17:13.344Z,97325.23
2018-12-12T09:19:44.220Z,97322.34
2018-12-12T09:22:14.784Z,97325.00
2018-12-12T09:24:45.483Z,97316.52
2018-12-12T09:27:16.276Z,97318.13
2018-12-12T09:29:46.853Z,97316.39
2018-12-12T09:32:19.524Z,97310.59
2018-12-12T09:34:52.454Z,97311.88
2018-12-12T09:37:22.991Z,97318.02
2018-12-12T09:39:53.678Z,97316.85
2018-12-12T09:42:24.381Z,97323.09
2018-12-12T09:44:55.036Z,97315.91
2018-12-12T09:47:26.274Z,97317.08
2018-12-12T09:49:56.957Z,97317.96
2018-12-12T09:52:29.740Z,97312.59
2018-12-12T09:55:02.854Z,97317.05
2018-12-12T09:57:33.617Z,97319.18
2018-12-12T10:00:04.361Z,97316.17
2018-12-12T10:02:35.534Z,97320.15
2018-12-12T10:05:06.507Z,97323.53
2018-12-12T10:07:37.461Z,97314.24
2018-12-12T10:10:09.095Z,97320.27
2018-12-12T10:12:39.862Z,97319.36
2018-12-12T10:15:10.801Z,97323.36
2018-12-12T10:17:41.488Z,97319.77
2018-12-12T10:20:12.207Z,97319.20
2018-12-12T10:22:43.016Z,97321.56
2018-12-12T10:25:13.811Z,97318.49
2018-12-12T10:27:45.670Z,97316.83
2018-12-12T10:30:16.431Z,97307.70
2018-12-12T10:32:47.011Z,97307.95
2018-12-12T10:35:17.684Z,97310.06
2018-12-12T10:37:48.301Z,97310.87
2018-12-12T10:40:19.051Z,97319.92
2018-12-12T10:42:49.609Z,97314.73
2018-12-12T10:45:20.394Z,97317.55
2018-12-12T10:47:51.189Z,97320.58
2018-12-12T10:50:22.017Z,97322.19
2018-12-12T10:52:52.739Z,97317.45
2018-12-12T10:55:25.792Z,97315.29
2018-12-12T10:57:56.432Z,97321.60
2018-12-12T11:00:27.148Z,97317.52
2018-12-12T11:03:03.067Z,97316.86
2018-12-12T11:05:33.850Z,97324.11
2018-12-12T11:08:04.787Z,97317.00
2018-12-12T11:10:35.604Z,97324.73
2018-12-12T11:13:06.321Z,97327.03
2018-12-12T11:15:37.183Z,97328.83
2018-12-12T11:18:07.840Z,97332.03
2018-12-12T11:20:38.556Z,97332.15
2018-12-12T11:23:09.142Z,97333.79
2018-12-12T11:25:39.796Z,97332.00
2018-12-12T11:28:10.406Z,97337.44
2018-12-12T11:30:41.073Z,97333.67
2018-12-12T11:33:11.704Z,97339.66
2018-12-12T11:35:42.658Z,97340.17
2018-12-12T11:38:13.382Z,97339.48
2018-12-12T11:40:43.986Z,97340.74
2018-12-12T11:43:14.996Z,97344.00
2018-12-12T11:45:45.532Z,97340.42
2018-12-12T11:48:17.350Z,97346.89
2018-12-12T11:50:48.018Z,97346.04
2018-12-12T11:53:18.700Z,97341.44
2018-12-12T11:55:49.601Z,97346.22
2018-12-12T11:58:20.213Z,97348.63
2018-12-12T12:00:50.881Z,97347.67
2018-12-12T12:03:21.515Z,97358.80
2018-12-12T12:05:52.114Z,97358.66
2018-12-12T12:08:22.767Z,97360.42
2018-12-12T12:10:53.370Z,97358.97
2018-12-12T12:13:26.242Z,97357.47
2018-12-12T12:15:57.175Z,97362.55
2018-12-12T12:18:27.792Z,97356.10
2018-12-12T12:20:58.594Z,97363.63
2018-12-12T12:23:29.319Z,97361.01
2018-12-12T12:25:59.939Z,97365.34
2018-12-12T12:28:30.536Z,97364.17
2018-12-12T12:31:01.151Z,97375.11
2018-12-12T12:33:31.827Z,97377.30
2018-12-12T12:36:02.610Z,97376.63
2018-12-12T12:38:33.341Z,97377.64
2018-12-12T12:41:04.074Z,97373.64
2018-12-12T12:43:34.718Z,97375.81
2018-12-12T12:46:05.485Z,97382.13
2018-12-12T12:48:36.040Z,97384.95
2018-12-12T12:51:06.707Z,97388.38
2018-12-12T12:53:37.392Z,97381.83
2018-12-12T12:56:08.066Z,97391.12
2018-12-12T12:58:38.708Z,97394.01
2018-12-12T13:01:09.312Z,97395.61
2018-12-12T13:03:40.132Z,97399.97
2018-12-12T13:06:12.087Z,97402.76
2018-12-12T13:08:42.749Z,97409.75
2018-12-12T13:11:14.947Z,97406.61
2018-12-12T13:13:45.872Z,97409.25
2018-12-12T13:16:16.636Z,97410.75
2018-12-12T13:18:47.310Z,97412.61
2018-12-12T13:21:17.876Z,97416.50
2018-12-12T13:23:48.618Z,97419.05
2018-12-12T13:26:19.226Z,97425.97
2018-12-12T13:28:49.942Z,97426.59
2018-12-12T13:31:20.549Z,97431.86
2018-12-12T13:33:51.301Z,97438.11
2018-12-12T13:36:22.069Z,97447.81
2018-12-12T13:38:52.697Z,97444.91
2018-12-12T13:41:23.505Z,97449.45
2018-12-12T13:43:54.610Z,97433.94
2018-12-12T13:46:25.351Z,97451.41
2018-12-12T13:48:56.722Z,97452.53
2018-12-12T13:51:27.466Z,97449.80
2018-12-12T13:53:58.089Z,97455.11
2018-12-12T13:56:28.942Z,97459.80
2018-12-12T13:58:59.553Z,97465.77
2018-12-12T14:01:30.215Z,97465.20
2018-12-12T14:04:00.895Z,97468.94
2018-12-12T14:06:31.614Z,97467.16
2018-12-12T14:09:02.352Z,97470.55
2018-12-12T14:11:34.186Z,97469.80
2018-12-12T14:14:04.916Z,97470.64
2018-12-12T14:16:35.706Z,97469.08
2018-12-12T14:19:06.370Z,97474.47
2018-12-12T14:21:37.697Z,97478.56
2018-12-12T14:24:08.384Z,97488.89
2018-12-12T14:26:39.201Z,97487.24
2018-12-12T14:29:10.931Z,97489.44
2018-12-12T14:31:41.607Z,97495.67
2018-12-12T14:34:12.296Z,97492.14
2018-12-12T14:36:43.283Z,97489.94
2018-12-12T14:39:14.745Z,97488.81
2018-12-12T14:41:45.870Z,97494.23
2018-12-12T14:44:16.678Z,97491.47
2018-12-12T14:46:47.300Z,97491.09
2018-12-12T14:49:17.940Z,97494.47
2018-12-12T14:51:48.608Z,97496.94
2018-12-12T14:54:19.264Z,97504.67
2018-12-12T14:56:50.041Z,97499.91
2018-12-12T14:59:20.768Z,97504.16
2018-12-12T15:01:51.541Z,97502.10
2018-12-12T15:04:22.315Z,97503.30
2018-12-12T15:06:53.037Z,97507.25
2018-12-12T15:09:23.723Z,97505.00
2018-12-12T15:11:54.465Z,97513.29
2018-12-12T15:14:25.141Z,97514.86
2018-12-12T15:16:56.165Z,97520.73
2018-12-12T15:19:27.615Z,97518.59
2018-12-12T15:21:58.350Z,97520.44
2018-12-12T15:24:29.139Z,97518.19
2018-12-12T15:26:59.840Z,97524.02
2018-12-12T15:29:30.536Z,97524.82
2018-12-12T15:32:02.465Z,97522.58
2018-12-12T15:34:33.173Z,97525.53
2018-12-12T15:37:04.044Z,97525.72
2018-12-12T15:39:34.744Z,97535.19
2018-12-12T15:42:05.451Z,97529.13
2018-12-12T15:44:36.223Z,97529.42
2018-12-12T15:47:06.874Z,97525.19
2018-12-12T15:49:37.582Z,97532.11
2018-12-12T15:52:08.221Z,97529.50
2018-12-12T15:54:38.892Z,97533.39
2018-12-12T15:57:09.853Z,97535.45
2018-12-12T15:59:40.555Z,97528.66
2018-12-12T16:02:11.311Z,97531.45
2018-12-12T16:04:41.940Z,97525.27
2018-12-12T16:07:12.612Z,97519.34
2018-12-12T16:09:43.317Z,97517.95
2018-12-12T16:12:17.717Z,97526.11
2018-12-12T16:14:48.346Z,97518.73
2018-12-12T16:17:19.217Z,97521.64
2018-12-12T16:19:49.845Z,97523.39
2018-12-12T16:22:20.457Z,97530.23
2018-12-12T16:24:51.081Z,97533.98
2018-12-12T16:27:21.683Z,97529.88
2018-12-12T16:29:52.330Z,97534.78
2018-12-12T16:32:22.981Z,97536.36
2018-12-12T16:34:55.815Z,97535.74
2018-12-12T16:37:26.607Z,97532.82
2018-12-12T16:39:57.232Z,97538.34
2018-12-12T16:42:28.945Z,97538.34
2018-12-12T16:45:01.724Z,97545.30
2018-12-12T16:47:37.551Z,97540.83
2018-12-12T16:50:08.804Z,97543.49
2018-12-12T16:52:39.502Z,97550.81
2018-12-12T16:55:10.500Z,97554.87
2018-12-12T16:57:41.475Z,97556.79
2018-12-12T17:00:12.273Z,97558.87
2018-12-12T17:02:42.986Z,97560.62
2018-12-12T17:05:13.645Z,97553.45
2018-12-12T17:07:44.280Z,97554.72
2018-12-12T17:10:15.033Z,97558.44
2018-12-12T17:12:45.715Z,97559.93
2018-12-12T17:15:16.401Z,97559.37
2018-12-12T17:17:47.260Z,97565.20
2018-12-12T17:20:17.889Z,97568.03
2018-12-12T17:22:48.707Z,97566.66
2018-12-12T17:25:19.382Z,97563.49
2018-12-12T17:27:50.132Z,97569.11
2018-12-12T17:30:21.304Z,97567.47
2018-12-12T17:32:53.014Z,97564.30
2018-12-12T17:35:24.164Z,97563.67
2018-12-12T17:37:55.178Z,97563.88
2018-12-12T17:40:25.899Z,97567.14
2018-12-12T17:42:56.584Z,97562.27
2018-12-12T17:45:27.279Z,97561.02
2018-12-12T17:47:57.946Z,97558.84
2018-12-12T17:50:28.631Z,97567.19
2018-12-12T17:52:59.282Z,97562.95
2018-12-12T17:55:29.975Z,97565.51
2018-12-12T17:58:00.885Z,97569.33
2018-12-12T18:00:31.552Z,97570.76
2018-12-12T18:03:04.885Z,97573.59
2018-12-12T18:05:40.789Z,97575.36
2018-12-12T18:08:11.481Z,97575.78
2018-12-12T18:10:43.730Z,97577.20
2018-12-12T18:13:14.402Z,97579.27
2018-12-12T18:15:47.508Z,97578.38
2018-12-12T18:18:20.403Z,97579.87
2018-12-12T18:20:51.132Z,97584.17
2018-12-12T18:23:23.913Z,97587.88
2018-12-12T18:25:56.637Z,97586.06
2018-12-12T18:28:27.301Z,97587.50
2018-12-12T18:30:57.944Z,97590.19
2018-12-12T18:33:30.703Z,97594.54
2018-12-12T18:36:06.971Z,97594.27
2018-12-12T18:38:37.880Z,97588.08
2018-12-12T18:41:08.482Z,97589.62
2018-12-12T18:43:41.247Z,97592.27
2018-12-12T18:46:11.788Z,97593.80
2018-12-12T18:48:42.403Z,97591.91
2018-12-12T18:51:15.055Z,97599.10
2018-12-12T18:53:45.733Z,97593.70
2018-12-12T18:56:18.513Z,97588.94
2018-12-12T18:58:49.452Z,97585.44
2018-12-12T19:01:20.165Z,97587.77
2018-12-12T19:03:51.067Z,97586.83
2018-12-12T19:06:21.859Z,97589.72
2018-12-12T19:08:52.554Z,97591.41
2018-12-12T19:11:23.264Z,97585.54
2018-12-12T19:13:54.518Z,97582.90
2018-12-12T19:16:25.212Z,97587.60
2018-12-12T19:18:56.509Z,97586.81
2018-12-12T19:21:27.190Z,97587.39
2018-12-12T19:23:58.082Z,97584.90
2018-12-12T19:26:28.817Z,97584.33
2018-12-12T19:28:59.540Z,97581.52
2018-12-12T19:31:30.224Z,97582.63
2018-12-12T19:34:00.853Z,97577.50
2018-12-12T19:36:31.865Z,97585.13
2018-12-12T19:39:03.032Z,97577.07
2018-12-12T19:41:35.348Z,97580.09
2018-12-12T19:44:06.041Z,97580.09
2018-12-12T19:46:36.759Z,97583.73
2018-12-12T19:49:07.413Z,97585.54
2018-12-12T19:51:38.935Z,97555.37
2018-12-12T19:54:09.895Z,97582.63
2018-12-12T19:56:40.595Z,97586.17
2018-12-12T19:59:13.238Z,97589.03
2018-12-12T20:01:43.896Z,97589.14
2018-12-12T20:04:14.596Z,97589.14
2018-12-12T20:06:47.506Z,97590.11
2018-12-12T20:09:18.279Z,97584.37
2018-12-12T20:11:49.045Z,97581.80
2018-12-12T20:14:19.651Z,97584.69
2018-12-12T20:16:50.285Z,97586.13
2018-12-12T20:19:21.196Z,97570.24
2018-12-12T20:21:52.019Z,97583.53
2018-12-12T20:24:23.016Z,97584.37
2018-12-12T20:26:54.150Z,97589.14
2018-12-12T20:29:25.193Z,97586.08
2018-12-12T20:31:56.363Z,97586.17
2018-12-12T20:34:27.331Z,97591.30
2018-12-12T20:36:58.310Z,97590.04
2018-12-12T20:39:29.974Z,97594.12
2018-12-12T20:42:00.952Z,97593.32
2018-12-12T20:44:31.938Z,97594.07
2018-12-12T20:47:03.066Z,97595.19
2018-12-12T20:49:34.172Z,97593.53
2018-12-12T20:52:05.131Z,97598.94
2018-12-12T20:54:36.045Z,97589.25
2018-12-12T20:57:07.098Z,97594.80
2018-12-12T20:59:38.568Z,97599.30
2018-12-12T21:02:09.578Z,97602.21
2018-12-12T21:04:40.549Z,97607.14
2018-12-12T21:07:11.691Z,97611.66
2018-12-12T21:09:42.765Z,97609.00
2018-12-12T21:12:13.763Z,97611.44
2018-12-12T21:14:44.978Z,97611.55
2018-12-12T21:17:16.124Z,97606.89
2018-12-12T21:19:47.383Z,97614.77
2018-12-12T21:22:18.430Z,97613.44
2018-12-12T21:24:50.668Z,97616.24
2018-12-12T21:27:21.739Z,97614.50
2018-12-12T21:29:52.838Z,97610.78
2018-12-12T21:32:23.922Z,97616.17
2018-12-12T21:34:55.538Z,97606.75
2018-12-12T21:37:26.781Z,97605.89
2018-12-12T21:39:57.973Z,97605.00
2018-12-12T21:42:29.227Z,97608.27
2018-12-12T21:45:00.277Z,97603.56
2018-12-12T21:47:31.420Z,97609.70
2018-12-12T21:50:02.577Z,97604.62
2018-12-12T21:52:33.465Z,97614.22
2018-12-12T21:55:05.387Z,97610.41
2018-12-12T21:57:37.769Z,97600.64
2018-12-12T22:00:10.126Z,97603.09
2018-12-12T22:02:40.888Z,97603.50
2018-12-12T22:05:11.631Z,97599.25
2018-12-12T22:07:42.344Z,97599.27
2018-12-12T22:10:13.061Z,97563.38
2018-12-12T22:12:43.912Z,97601.68
2018-12-12T22:15:14.568Z,97609.43
2018-12-12T22:17:45.326Z,97595.81
2018-12-12T22:20:16.181Z,97596.97
2018-12-12T22:22:46.894Z,97589.62
2018-12-12T22:25:17.609Z,97588.78
2018-12-12T22:27:48.245Z,97592.53
2018-12-12T22:30:19.020Z,97591.31
2018-12-12T22:32:50.200Z,97580.48
2018-12-12T22:35:20.917Z,97581.88
2018-12-12T22:37:51.636Z,97586.84
2018-12-12T22:40:22.931Z,97586.80
2018-12-12T22:42:53.534Z,97589.59
2018-12-12T22:45:24.209Z,97583.60
2018-12-12T22:47:55.307Z,97583.36
2018-12-12T22:50:25.938Z,97572.75
2018-12-12T22:52:56.549Z,97571.84
2018-12-12T22:55:27.208Z,97579.84
2018-12-12T22:57:57.836Z,97585.25
2018-12-12T23:00:33.469Z,97592.58
2018-12-12T23:03:06.569Z,97587.47
2018-12-12T23:05:37.340Z,97590.03
2018-12-12T23:08:08.090Z,97593.24
2018-12-12T23:10:40.659Z,97603.05
2018-12-12T23:13:11.533Z,97597.42
2018-12-12T23:15:42.177Z,97604.52
2018-12-12T23:18:12.882Z,97604.83
2018-12-12T23:20:43.555Z,97603.53
2018-12-12T23:23:14.203Z,97602.52
2018-12-12T23:25:45.621Z,97607.06
2018-12-12T23:28:16.359Z,97601.90
2018-12-12T23:30:46.961Z,97603.96
2018-12-12T23:33:17.642Z,97608.64
2018-12-12T23:35:48.359Z,97606.28
2018-12-12T23:38:18.996Z,97593.73
2018-12-12T23:40:49.699Z,97597.65
2018-12-12T23:43:20.295Z,97592.45
2018-12-12T23:45:50.967Z,97599.30
2018-12-12T23:48:21.633Z,97598.81
2018-12-12T23:50:52.275Z,97607.12
2018-12-12T23:53:22.972Z,97610.27
2018-12-12T23:55:53.649Z,97611.31
2018-12-12T23:58:24.349Z,97612.12
